Time;durP1;ratioP1;P1;durP2;ratioP2;P2;SDS_P1;SDS_P2;PMS_P1;PMS_P2;Temp;Humidity;BMP_temperature;BMP_pressure;BME280_temperature;BME280_humidity;BME280_pressure;Samples;Min_cycle;Max_cycle;Signal;HPM_P1;HPM_P2
2022/08/08 00:02:03;;;;;;;1.52;1.13;;;14.30;99.90;;;;;;5022017;28;20026;-86
2022/08/08 00:04:45;;;;;;;1.48;1.10;;;14.30;99.90;;;;;;5019548;28;20022;-85
2022/08/08 00:07:30;;;;;;;1.13;0.82;;;14.20;99.90;;;;;;5028180;28;20041;-84
2022/08/08 00:10:24;;;;;;;1.20;1.02;;;14.20;99.90;;;;;;5021227;28;20041;-85
2022/08/08 00:13:16;;;;;;;2.25;0.80;;;14.20;99.90;;;;;;5020208;28;20030;-85
2022/08/08 00:16:17;;;;;;;2.15;1.00;;;14.10;99.90;;;;;;5020695;28;20076;-85
2022/08/08 00:19:08;;;;;;;1.00;0.77;;;14.00;99.90;;;;;;5020329;28;20075;-85
2022/08/08 00:21:44;;;;;;;1.38;1.05;;;13.90;99.90;;;;;;5020443;28;20029;-86
2022/08/08 00:24:55;;;;;;;0.98;0.85;;;13.90;99.90;;;;;;5024372;28;20021;-85
2022/08/08 00:27:21;;;;;;;;;;;14.00;99.90;;;;;;5020448;28;20345;-83
2022/08/08 00:30:04;;;;;;;2.22;1.42;;;13.90;99.90;;;;;;5023145;28;19924;-84
2022/08/08 00:32:52;;;;;;;2.33;0.93;;;13.90;99.90;;;;;;5021669;28;20071;-83
2022/08/08 00:35:29;;;;;;;2.90;0.90;;;13.90;99.90;;;;;;5022564;28;20026;-83
2022/08/08 00:38:12;;;;;;;1.67;1.33;;;13.90;99.90;;;;;;5021171;28;20021;-82
2022/08/08 00:40:41;;;;;;;1.50;1.10;;;13.90;99.90;;;;;;5021733;28;20025;-84
2022/08/08 00:43:42;;;;;;;1.52;1.10;;;13.80;99.90;;;;;;5025938;28;20495;-82
2022/08/08 00:46:14;;;;;;;1.52;1.20;;;13.80;99.90;;;;;;5024283;28;20044;-82
2022/08/08 00:48:58;;;;;;;1.23;1.10;;;13.80;99.90;;;;;;5021955;28;20025;-83
2022/08/08 00:52:02;;;;;;;1.05;0.98;;;13.80;99.90;;;;;;5023264;28;20096;-86
2022/08/08 01:01:07;;;;;;;1.45;0.70;;;13.70;99.90;;;;;;5032175;28;20025;-84
2022/08/08 01:03:56;;;;;;;1.65;1.05;;;13.70;99.90;;;;;;5025923;28;20028;-84
2022/08/08 01:06:56;;;;;;;2.78;1.35;;;13.70;99.90;;;;;;5021355;28;20122;-83
2022/08/08 01:09:58;;;;;;;1.10;0.70;;;13.60;99.90;;;;;;5047885;28;20029;-80
2022/08/08 01:13:02;;;;;;;1.88;1.50;;;13.60;99.90;;;;;;5022502;28;20033;-86
2022/08/08 01:15:59;;;;;;;2.30;1.15;;;13.60;99.90;;;;;;5026578;28;20847;-84
2022/08/08 01:19:29;;;;;;;1.80;1.00;;;13.50;99.90;;;;;;5018376;28;20032;-83
2022/08/08 01:22:06;;;;;;;1.48;1.25;;;13.50;99.90;;;;;;5014671;28;20053;-81
2022/08/08 01:25:09;;;;;;;1.35;1.10;;;13.40;99.90;;;;;;5022441;28;20105;-82
2022/08/08 01:28:02;;;;;;;1.17;0.95;;;13.40;99.90;;;;;;5026323;28;20485;-82
2022/08/08 01:30:59;;;;;;;0.85;0.82;;;13.40;99.90;;;;;;5025268;28;20061;-82
2022/08/08 01:34:06;;;;;;;1.20;0.88;;;13.40;99.90;;;;;;5022798;28;20025;-84
2022/08/08 01:37:09;;;;;;;2.58;1.13;;;13.40;99.90;;;;;;5022031;28;20026;-84
2022/08/08 01:43:29;;;;;;;0.77;0.70;;;13.30;99.90;;;;;;5019517;28;20116;-82
2022/08/08 01:46:40;;;;;;;1.13;0.90;;;13.30;99.90;;;;;;5033545;28;20024;-83
2022/08/08 01:49:09;;;;;;;1.50;1.23;;;13.30;99.90;;;;;;5025738;28;20032;-86
2022/08/08 01:51:57;;;;;;;2.08;1.08;;;13.20;99.90;;;;;;5021779;28;20540;-86
2022/08/08 01:55:08;;;;;;;1.35;0.98;;;13.20;99.90;;;;;;5020515;28;20032;-82
2022/08/08 01:58:13;;;;;;;0.65;0.63;;;13.20;99.90;;;;;;5024301;28;20025;-85
2022/08/08 02:01:16;;;;;;;1.67;0.85;;;13.20;99.90;;;;;;5019619;28;20030;-82
2022/08/08 02:04:00;;;;;;;1.42;1.27;;;13.20;99.90;;;;;;5024078;28;20028;-82
2022/08/08 02:06:51;;;;;;;1.42;1.15;;;13.10;99.90;;;;;;5022464;28;20120;-78
2022/08/08 02:09:43;;;;;;;1.45;1.20;;;13.10;99.90;;;;;;5023427;28;20022;-84
2022/08/08 02:12:27;;;;;;;1.05;0.95;;;13.10;99.90;;;;;;5026052;28;20061;-85
2022/08/08 02:15:14;;;;;;;0.98;0.85;;;13.00;99.90;;;;;;5022535;28;20385;-81
2022/08/08 02:17:57;;;;;;;1.25;1.08;;;13.00;99.90;;;;;;5018435;28;20033;-84
2022/08/08 02:22:30;;;;;;;1.63;1.35;;;13.10;99.90;;;;;;5018841;28;20048;-84
2022/08/08 02:23:39;;;;;;;1.10;0.88;;;13.10;99.90;;;;;;5027299;28;20025;-83
2022/08/08 02:26:13;;;;;;;1.13;1.02;;;13.00;99.90;;;;;;5023974;28;20455;-84
2022/08/08 02:28:52;;;;;;;1.20;0.90;;;13.00;99.90;;;;;;5018376;28;20053;-83
2022/08/08 02:31:53;;;;;;;0.82;0.77;;;12.90;99.90;;;;;;5022510;28;20036;-80
2022/08/08 02:34:47;;;;;;;3.10;1.00;;;12.90;99.90;;;;;;5019848;28;21111;-83
2022/08/08 02:37:43;;;;;;;1.33;1.20;;;12.90;99.90;;;;;;5021231;28;20087;-83
2022/08/08 02:40:18;;;;;;;1.30;1.17;;;12.90;99.90;;;;;;5017905;28;20565;-83
2022/08/08 02:43:13;;;;;;;1.17;1.08;;;12.90;99.90;;;;;;5019196;28;20029;-83
2022/08/08 02:46:17;;;;;;;1.33;1.15;;;12.90;99.90;;;;;;5016453;28;20519;-86
2022/08/08 02:49:00;;;;;;;0.93;0.93;;;12.90;99.90;;;;;;5019790;28;20099;-83
2022/08/08 02:51:46;;;;;;;1.75;1.00;;;12.90;99.90;;;;;;5016373;28;20044;-83
2022/08/08 02:54:31;;;;;;;1.42;1.05;;;12.90;99.90;;;;;;5020094;28;20037;-83
2022/08/08 02:57:24;;;;;;;1.20;1.10;;;12.90;99.90;;;;;;5018931;28;20079;-83
2022/08/08 03:00:16;;;;;;;0.90;0.90;;;12.90;99.90;;;;;;5020255;28;20033;-83
2022/08/08 03:03:00;;;;;;;;;;;12.90;99.90;;;;;;5018103;28;20078;-83
2022/08/08 03:06:03;;;;;;;1.27;0.80;;;12.80;99.90;;;;;;5020446;28;19909;-86
2022/08/08 03:09:06;;;;;;;1.52;1.00;;;12.80;99.90;;;;;;5024248;28;20064;-86
2022/08/08 03:12:07;;;;;;;0.77;0.77;;;12.70;99.90;;;;;;5016820;28;20146;-84
2022/08/08 03:15:14;;;;;;;1.25;1.02;;;12.60;99.90;;;;;;5019289;28;20783;-85
2022/08/08 03:18:03;;;;;;;1.77;1.00;;;12.50;99.90;;;;;;5031401;28;20040;-85
2022/08/08 03:20:45;;;;;;;1.58;1.15;;;12.50;99.90;;;;;;5036491;28;20030;-84
2022/08/08 03:23:10;;;;;;;1.42;1.13;;;12.50;99.90;;;;;;5017516;28;20033;-88
2022/08/08 03:25:37;;;;;;;1.63;1.00;;;12.60;99.90;;;;;;5014442;28;20034;-89
2022/08/08 03:28:20;;;;;;;4.95;1.40;;;12.50;99.90;;;;;;5026820;28;20031;-87
2022/08/08 03:30:47;;;;;;;2.88;1.55;;;12.60;99.90;;;;;;5021592;28;20073;-87
2022/08/08 03:33:18;;;;;;;3.60;1.35;;;12.60;99.90;;;;;;5019861;28;20110;-86
2022/08/08 03:35:47;;;;;;;1.00;1.00;;;12.50;99.90;;;;;;5015877;28;20113;-82
2022/08/08 03:38:13;;;;;;;1.75;1.23;;;12.50;99.90;;;;;;5018733;28;20041;-85
2022/08/08 03:40:38;;;;;;;2.05;1.30;;;12.50;99.90;;;;;;5009914;28;20026;-87
2022/08/08 03:43:08;;;;;;;3.42;1.27;;;12.50;99.90;;;;;;5020222;28;20029;-90
2022/08/08 03:45:33;;;;;;;1.10;1.00;;;12.50;99.90;;;;;;5019054;28;20120;-89
2022/08/08 03:48:01;;;;;;;2.05;1.50;;;12.60;99.90;;;;;;5028585;28;20120;-86
2022/08/08 03:50:28;;;;;;;1.13;1.02;;;12.60;99.90;;;;;;5019400;28;20045;-87
2022/08/08 03:52:55;;;;;;;2.20;1.30;;;12.50;99.90;;;;;;5023454;28;20025;-87
2022/08/08 03:55:23;;;;;;;3.70;1.00;;;12.50;99.90;;;;;;5020148;28;20025;-86
2022/08/08 03:57:55;;;;;;;1.30;1.20;;;12.50;99.90;;;;;;5021595;28;20021;-87
2022/08/08 04:00:24;;;;;;;1.33;1.00;;;12.50;99.90;;;;;;5014699;28;20033;-87
2022/08/08 04:03:01;;;;;;;2.08;1.27;;;12.50;99.90;;;;;;5019696;28;20033;-86
2022/08/08 04:05:28;;;;;;;1.63;1.20;;;12.50;99.90;;;;;;5016973;28;20029;-87
2022/08/08 04:07:55;;;;;;;1.40;1.30;;;12.50;99.90;;;;;;5018457;28;20033;-86
2022/08/08 04:10:22;;;;;;;2.17;1.25;;;12.50;99.90;;;;;;5022712;28;20154;-85
2022/08/08 04:12:47;;;;;;;1.65;1.17;;;12.60;99.90;;;;;;5021285;28;20040;-86
2022/08/08 04:15:13;;;;;;;3.63;1.48;;;12.50;99.90;;;;;;5022553;28;20060;-85
2022/08/08 04:17:38;;;;;;;0.95;0.85;;;12.50;99.90;;;;;;5018666;28;20480;-84
2022/08/08 04:20:05;;;;;;;1.27;1.10;;;12.50;99.90;;;;;;5016394;28;20495;-83
2022/08/08 04:22:31;;;;;;;1.52;1.42;;;12.60;99.90;;;;;;5019488;28;20025;-86
2022/08/08 04:24:57;;;;;;;1.83;1.15;;;12.60;99.90;;;;;;5018858;28;20374;-85
2022/08/08 04:27:23;;;;;;;1.55;1.27;;;12.60;99.90;;;;;;5021784;28;20025;-85
2022/08/08 04:29:52;;;;;;;1.98;1.20;;;12.60;99.90;;;;;;5020021;28;20049;-86
2022/08/08 04:32:18;;;;;;;3.10;1.50;;;12.70;99.90;;;;;;5023785;28;20039;-86
2022/08/08 04:34:44;;;;;;;1.00;0.82;;;12.70;99.90;;;;;;5022478;28;20022;-87
2022/08/08 04:37:10;;;;;;;1.58;1.13;;;12.70;99.90;;;;;;5023623;28;20028;-88
2022/08/08 04:39:36;;;;;;;1.95;1.40;;;12.80;99.90;;;;;;5019467;28;20140;-88
2022/08/08 04:42:01;;;;;;;2.00;1.55;;;12.80;99.90;;;;;;5017587;28;20442;-88
2022/08/08 04:44:27;;;;;;;1.80;1.48;;;12.90;99.90;;;;;;5021066;28;20112;-86
2022/08/08 04:47:04;;;;;;;5.25;1.20;;;12.90;99.90;;;;;;5021565;28;20026;-87
2022/08/08 04:49:30;;;;;;;1.40;1.30;;;12.90;99.90;;;;;;5014480;28;20025;-87
2022/08/08 04:51:55;;;;;;;1.95;1.30;;;13.00;99.90;;;;;;5015899;28;20029;-85
2022/08/08 04:54:21;;;;;;;1.55;1.25;;;13.00;99.90;;;;;;5022182;28;20045;-89
2022/08/08 04:56:50;;;;;;;2.05;1.70;;;13.10;99.90;;;;;;5020764;28;20020;-90
2022/08/08 04:59:16;;;;;;;2.33;1.77;;;13.10;99.90;;;;;;5020585;28;20031;-88
2022/08/08 05:01:41;;;;;;;2.78;1.60;;;13.10;99.90;;;;;;5022326;28;20124;-90
2022/08/08 05:04:07;;;;;;;2.00;1.42;;;13.20;99.90;;;;;;5020017;28;20026;-87
2022/08/08 05:06:32;;;;;;;2.80;0.98;;;13.30;99.90;;;;;;5017376;28;20025;-87
2022/08/08 05:08:58;;;;;;;1.52;1.38;;;13.40;99.90;;;;;;5026542;28;20551;-86
2022/08/08 05:11:24;;;;;;;3.35;1.50;;;13.50;99.90;;;;;;5021669;28;20507;-85
2022/08/08 05:13:49;;;;;;;2.13;1.48;;;13.50;99.90;;;;;;5023091;28;20473;-85
2022/08/08 05:16:15;;;;;;;2.08;1.30;;;13.60;99.90;;;;;;5021843;28;20079;-86
2022/08/08 05:18:40;;;;;;;2.08;1.88;;;13.60;99.90;;;;;;5024007;28;20080;-86
2022/08/08 05:21:09;;;;;;;1.85;1.48;;;13.70;99.90;;;;;;5025082;28;20029;-86
2022/08/08 05:23:35;;;;;;;6.05;2.15;;;13.70;99.90;;;;;;5021688;28;20487;-87
2022/08/08 05:26:02;;;;;;;1.88;1.60;;;13.70;99.90;;;;;;5020184;28;20033;-86
2022/08/08 05:28:27;;;;;;;2.45;1.50;;;13.90;99.90;;;;;;5025027;28;20052;-86
2022/08/08 05:30:53;;;;;;;2.05;1.50;;;13.90;99.90;;;;;;5026036;28;20056;-86
2022/08/08 05:33:18;;;;;;;3.05;1.90;;;14.00;99.90;;;;;;5023764;28;20029;-86
2022/08/08 05:35:45;;;;;;;1.50;1.38;;;14.00;99.90;;;;;;5024436;28;20055;-86
2022/08/08 05:38:16;;;;;;;2.10;1.45;;;14.10;99.90;;;;;;5023636;28;20479;-87
2022/08/08 05:40:49;;;;;;;2.85;1.50;;;14.20;99.90;;;;;;5020706;28;20902;-87
2022/08/08 05:43:28;;;;;;;2.47;1.50;;;14.20;99.90;;;;;;5034570;28;20029;-87
2022/08/08 05:45:58;;;;;;;2.25;1.70;;;14.30;99.90;;;;;;5027302;28;20136;-82
2022/08/08 05:48:24;;;;;;;3.28;1.83;;;14.40;99.90;;;;;;5018270;28;20083;-81
2022/08/08 05:50:50;;;;;;;1.70;1.25;;;14.50;99.90;;;;;;5021103;28;20617;-82
2022/08/08 05:53:17;;;;;;;2.22;1.30;;;14.60;99.90;;;;;;5026396;28;20033;-84
2022/08/08 05:55:44;;;;;;;1.90;1.25;;;14.70;99.90;;;;;;5020627;28;20071;-83
2022/08/08 05:58:11;;;;;;;1.98;1.25;;;14.90;99.90;;;;;;5022634;28;20025;-83
2022/08/08 06:00:38;;;;;;;3.05;1.90;;;15.00;99.90;;;;;;5015657;28;20032;-86
2022/08/08 06:03:11;;;;;;;1.73;1.45;;;15.10;99.90;;;;;;5025977;28;20029;-89
2022/08/08 06:05:47;;;;;;;2.97;1.48;;;15.20;99.90;;;;;;5018611;28;20056;-80
2022/08/08 06:08:14;;;;;;;1.85;1.27;;;15.30;99.90;;;;;;5019707;28;20038;-84
2022/08/08 06:10:40;;;;;;;1.33;1.10;;;15.40;99.90;;;;;;5021915;28;20030;-86
2022/08/08 06:13:07;;;;;;;1.98;1.38;;;15.50;99.90;;;;;;5019129;28;20121;-85
2022/08/08 06:15:35;;;;;;;1.20;1.10;;;15.70;99.90;;;;;;5020905;28;20136;-81
2022/08/08 06:18:01;;;;;;;2.20;1.17;;;15.80;99.90;;;;;;5017869;28;20076;-82
2022/08/08 06:20:27;;;;;;;2.53;1.08;;;15.90;99.60;;;;;;5022676;28;20033;-83
2022/08/08 06:22:53;;;;;;;1.60;1.30;;;15.90;99.90;;;;;;5024293;28;20029;-80
2022/08/08 06:25:19;;;;;;;1.77;1.15;;;16.00;99.30;;;;;;5024265;28;20025;-81
2022/08/08 06:27:53;;;;;;;1.10;1.00;;;16.10;98.30;;;;;;5021948;28;20088;-76
2022/08/08 06:30:19;;;;;;;1.60;1.20;;;16.20;97.30;;;;;;5018741;28;20092;-81
2022/08/08 06:32:50;;;;;;;1.60;1.08;;;16.20;96.80;;;;;;5022790;28;20057;-87
2022/08/08 06:35:17;;;;;;;1.13;1.02;;;16.40;96.30;;;;;;5022144;28;20033;-86
2022/08/08 06:37:45;;;;;;;0.98;0.90;;;16.50;95.80;;;;;;5029120;28;20037;-81
2022/08/08 06:40:14;;;;;;;1.27;1.02;;;16.60;95.30;;;;;;5018990;28;20026;-79
2022/08/08 06:42:44;;;;;;;2.08;1.35;;;16.60;94.60;;;;;;5017630;28;20029;-80
2022/08/08 06:45:10;;;;;;;1.85;1.20;;;16.80;93.60;;;;;;5021684;28;20037;-88
2022/08/08 06:47:36;;;;;;;1.67;1.08;;;16.80;93.50;;;;;;5023172;28;20056;-81
2022/08/08 06:50:01;;;;;;;1.38;1.10;;;16.90;93.10;;;;;;5020026;28;20060;-81
2022/08/08 06:52:27;;;;;;;1.48;1.08;;;17.00;92.50;;;;;;5019615;28;20113;-86
2022/08/08 06:54:57;;;;;;;2.20;1.40;;;17.00;92.90;;;;;;5020101;28;20025;-81
2022/08/08 06:57:25;;;;;;;1.52;1.27;;;17.00;92.60;;;;;;5020988;28;20021;-80
2022/08/08 06:59:52;;;;;;;1.10;1.00;;;17.10;91.90;;;;;;5017275;28;20037;-80
2022/08/08 07:02:27;;;;;;;1.10;1.08;;;17.20;91.30;;;;;;5022994;28;20413;-80
2022/08/08 07:05:18;;;;;;;4.07;2.22;;;17.30;91.80;;;;;;5014809;28;20022;-79
2022/08/08 07:08:00;;;;;;;4.47;1.87;;;17.50;91.60;;;;;;5018099;28;20032;-79
2022/08/08 07:10:50;;;;;;;1.98;1.23;;;17.70;92.10;;;;;;5014985;28;20030;-80
2022/08/08 07:13:17;;;;;;;1.40;1.00;;;17.80;91.50;;;;;;5023572;28;20046;-81
2022/08/08 07:16:03;;;;;;;2.35;1.13;;;17.80;90.60;;;;;;5021511;28;20554;-80
2022/08/08 07:18:47;;;;;;;4.15;1.77;;;18.00;91.40;;;;;;5017396;28;20025;-81
2022/08/08 07:21:17;;;;;;;1.45;1.13;;;18.20;90.70;;;;;;5030421;28;20021;-81
2022/08/08 07:23:58;;;;;;;0.82;0.82;;;18.20;89.90;;;;;;5018964;28;20053;-80
2022/08/08 07:26:28;;;;;;;1.98;1.13;;;18.30;90.10;;;;;;5017591;28;20418;-80
2022/08/08 07:28:54;;;;;;;4.25;1.25;;;18.50;89.00;;;;;;5027953;28;20040;-80
2022/08/08 07:31:20;;;;;;;2.33;1.05;;;18.70;89.50;;;;;;5017457;28;20025;-79
2022/08/08 07:33:47;;;;;;;1.73;1.20;;;18.70;89.00;;;;;;5021955;28;20075;-80
2022/08/08 07:36:14;;;;;;;1.38;0.85;;;18.70;89.10;;;;;;5022497;28;20028;-81
2022/08/08 07:38:40;;;;;;;1.67;1.23;;;18.90;88.90;;;;;;5023587;28;20025;-81
2022/08/08 07:41:07;;;;;;;2.10;1.02;;;19.20;85.70;;;;;;5023005;28;20071;-79
2022/08/08 07:43:33;;;;;;;1.40;0.95;;;19.20;84.30;;;;;;5021251;28;20085;-82
2022/08/08 07:45:58;;;;;;;1.73;1.23;;;19.20;83.70;;;;;;5015808;28;20151;-82
2022/08/08 07:48:24;;;;;;;1.15;1.05;;;19.20;83.20;;;;;;5022177;28;20489;-87
2022/08/08 07:50:57;;;;;;;1.40;1.10;;;19.30;84.50;;;;;;5018276;28;20168;-80
2022/08/08 07:53:32;;;;;;;2.90;1.20;;;19.60;85.40;;;;;;5026250;28;20072;-82
2022/08/08 07:56:00;;;;;;;1.08;0.88;;;19.70;81.60;;;;;;5022373;28;20037;-82
2022/08/08 07:58:37;;;;;;;1.13;1.00;;;19.80;82.50;;;;;;5019359;28;20028;-81
2022/08/08 08:01:11;;;;;;;1.83;0.98;;;19.90;82.90;;;;;;5023675;28;20026;-82
2022/08/08 08:03:58;;;;;;;2.00;0.90;;;19.90;80.30;;;;;;5030608;28;20037;-83
2022/08/08 08:06:26;;;;;;;2.13;1.17;;;20.10;81.00;;;;;;5022444;28;20392;-84
2022/08/08 08:08:57;;;;;;;0.60;0.60;;;20.10;77.80;;;;;;5022979;28;20804;-86
2022/08/08 08:11:27;;;;;;;2.55;0.90;;;20.20;75.30;;;;;;5026584;28;20026;-84
2022/08/08 08:13:52;;;;;;;4.65;0.98;;;20.20;74.80;;;;;;5025109;28;20036;-81
2022/08/08 08:16:21;;;;;;;1.63;1.20;;;20.30;76.30;;;;;;5022406;28;20112;-79
2022/08/08 08:19:17;;;;;;;1.10;1.00;;;20.40;75.30;;;;;;5020454;28;20033;-78
2022/08/08 08:21:45;;;;;;;0.80;0.80;;;20.50;71.90;;;;;;5022452;28;20425;-80
2022/08/08 08:24:12;;;;;;;1.52;0.93;;;20.60;73.40;;;;;;5020386;28;20034;-79
2022/08/08 08:26:39;;;;;;;2.00;1.10;;;20.70;73.80;;;;;;5021734;28;20079;-80
2022/08/08 08:29:05;;;;;;;1.38;1.00;;;20.90;70.20;;;;;;5021036;28;20088;-82
2022/08/08 08:31:31;;;;;;;6.40;2.42;;;20.90;72.90;;;;;;5017515;28;20044;-81
2022/08/08 08:33:56;;;;;;;1.83;1.33;;;21.00;71.90;;;;;;5017610;28;20029;-81
2022/08/08 08:36:23;;;;;;;1.48;0.95;;;21.00;72.90;;;;;;5018110;28;20465;-81
2022/08/08 08:38:49;;;;;;;6.15;1.27;;;21.10;68.80;;;;;;5023245;28;20082;-80
2022/08/08 08:41:19;;;;;;;1.15;1.02;;;21.30;70.10;;;;;;5020661;28;20067;-82
2022/08/08 08:43:46;;;;;;;0.88;0.73;;;21.50;70.20;;;;;;5026170;28;20532;-79
2022/08/08 08:46:12;;;;;;;1.52;1.00;;;21.50;69.30;;;;;;5031373;28;20034;-85
2022/08/08 08:48:41;;;;;;;1.13;1.08;;;21.60;69.40;;;;;;5028828;28;20091;-77
2022/08/08 08:51:12;;;;;;;1.55;1.20;;;21.60;66.90;;;;;;5021523;28;20078;-84
2022/08/08 08:53:47;;;;;;;1.67;0.87;;;21.70;68.30;;;;;;5028254;28;20022;-82
2022/08/08 08:56:15;;;;;;;0.95;0.80;;;21.70;66.50;;;;;;5031832;28;20430;-85
2022/08/08 08:58:42;;;;;;;1.50;0.90;;;21.80;65.10;;;;;;5027514;28;20025;-83
2022/08/08 09:01:12;;;;;;;0.85;0.80;;;21.80;63.40;;;;;;5025400;28;20090;-85
2022/08/08 09:03:39;;;;;;;1.00;0.88;;;21.80;61.40;;;;;;5029240;28;20044;-83
2022/08/08 09:06:08;;;;;;;1.40;1.08;;;22.10;59.90;;;;;;5021697;28;20064;-84
2022/08/08 09:08:38;;;;;;;1.45;1.17;;;22.10;62.60;;;;;;5025165;28;21931;-83
2022/08/08 09:11:06;;;;;;;1.23;0.90;;;22.00;60.60;;;;;;5019465;28;20037;-81
2022/08/08 09:13:35;;;;;;;1.27;1.00;;;22.10;59.80;;;;;;5020449;28;20060;-79
2022/08/08 09:16:01;;;;;;;0.95;0.77;;;22.30;63.80;;;;;;5021799;28;20041;-80
2022/08/08 09:18:27;;;;;;;3.00;0.95;;;22.30;63.00;;;;;;5023085;28;20167;-84
2022/08/08 09:20:52;;;;;;;1.08;0.80;;;22.30;63.90;;;;;;5023715;28;20532;-83
2022/08/08 09:23:19;;;;;;;1.70;0.88;;;22.20;59.60;;;;;;5023987;28;20191;-87
2022/08/08 09:26:09;;;;;;;1.83;0.80;;;22.40;60.00;;;;;;5019244;28;20037;-85
2022/08/08 09:28:38;;;;;;;0.88;0.88;;;22.40;61.80;;;;;;5020350;28;20033;-83
2022/08/08 09:31:12;;;;;;;1.25;1.02;;;22.40;63.70;;;;;;5016486;28;20036;-82
2022/08/08 09:33:43;;;;;;;2.08;1.23;;;22.30;60.90;;;;;;5022438;28;20112;-80
2022/08/08 09:36:21;;;;;;;1.17;0.90;;;22.50;59.40;;;;;;5017894;28;20036;-81
2022/08/08 09:38:52;;;;;;;0.90;0.80;;;22.60;56.10;;;;;;5018162;28;20504;-83
2022/08/08 09:41:40;;;;;;;0.70;0.70;;;22.70;56.80;;;;;;5014603;28;20041;-87
2022/08/08 09:44:19;;;;;;;1.48;1.00;;;22.70;58.20;;;;;;5019348;28;20033;-84
2022/08/08 09:46:49;;;;;;;0.90;0.80;;;22.80;58.00;;;;;;5025616;28;20048;-82
2022/08/08 09:49:19;;;;;;;2.10;1.00;;;23.10;59.60;;;;;;5019931;28;20025;-84
2022/08/08 09:51:51;;;;;;;1.23;1.10;;;23.00;58.70;;;;;;5018697;28;20044;-78
2022/08/08 09:54:20;;;;;;;1.00;0.90;;;23.00;58.40;;;;;;5020753;28;20021;-76
2022/08/08 09:56:54;;;;;;;4.25;0.90;;;22.90;60.70;;;;;;5020381;28;20087;-80
2022/08/08 09:59:25;;;;;;;2.45;0.88;;;22.70;60.30;;;;;;5023362;28;20145;-78
2022/08/08 10:01:52;;;;;;;2.00;1.02;;;22.70;59.20;;;;;;5022756;28;20124;-79
2022/08/08 10:04:21;;;;;;;0.88;0.80;;;22.80;60.10;;;;;;5021134;28;20090;-80
2022/08/08 10:06:47;;;;;;;0.90;0.85;;;22.70;60.00;;;;;;5023474;28;20091;-78
2022/08/08 10:09:13;;;;;;;0.80;0.80;;;22.80;59.00;;;;;;5018513;28;20632;-78
2022/08/08 10:11:46;;;;;;;1.30;0.90;;;22.80;57.60;;;;;;5023348;28;20034;-80
2022/08/08 10:14:12;;;;;;;1.25;0.90;;;22.80;58.20;;;;;;5018915;28;20022;-77
2022/08/08 10:16:42;;;;;;;1.15;0.82;;;22.70;58.30;;;;;;5022499;28;20120;-77
2022/08/08 10:19:10;;;;;;;1.20;1.10;;;23.00;57.80;;;;;;5025231;28;20037;-78
2022/08/08 10:21:37;;;;;;;1.00;0.90;;;23.40;54.70;;;;;;5025497;28;20032;-78
2022/08/08 10:24:08;;;;;;;1.15;0.90;;;23.60;57.90;;;;;;5024983;28;20021;-77
2022/08/08 10:26:47;;;;;;;3.00;1.15;;;23.50;57.80;;;;;;5025265;28;20037;-80
2022/08/08 10:29:13;;;;;;;1.15;1.00;;;23.60;58.20;;;;;;5023656;28;20108;-78
2022/08/08 10:34:26;;;;;;;1.88;0.85;;;23.80;57.20;;;;;;5023707;28;20120;-79
2022/08/08 10:36:53;;;;;;;0.90;0.88;;;23.80;56.90;;;;;;5025066;28;20049;-78
2022/08/08 10:39:23;;;;;;;1.20;1.10;;;24.00;56.50;;;;;;5025847;28;20053;-80
2022/08/08 10:41:56;;;;;;;1.40;1.30;;;23.90;57.00;;;;;;5023918;28;20029;-79
2022/08/08 10:44:39;;;;;;;1.00;0.90;;;24.00;56.20;;;;;;5024689;28;20037;-81
2022/08/08 10:47:15;;;;;;;1.08;0.93;;;23.90;55.80;;;;;;5021414;28;20079;-80
2022/08/08 10:49:42;;;;;;;1.10;1.00;;;24.00;56.00;;;;;;5026237;28;20034;-79
2022/08/08 10:52:08;;;;;;;2.60;1.10;;;24.10;55.20;;;;;;5026559;28;20535;-85
2022/08/08 10:54:34;;;;;;;1.05;0.93;;;24.50;54.70;;;;;;5024938;28;20022;-84
2022/08/08 10:57:01;;;;;;;1.23;0.93;;;24.60;53.50;;;;;;5024127;28;20017;-82
2022/08/08 10:59:27;;;;;;;2.00;1.00;;;24.20;54.10;;;;;;5025438;28;20091;-85
2022/08/08 11:01:53;;;;;;;0.90;0.90;;;24.20;54.70;;;;;;5026074;28;20463;-82
2022/08/08 11:04:19;;;;;;;1.10;1.00;;;24.00;54.60;;;;;;5024123;28;20039;-86
2022/08/08 11:06:44;;;;;;;1.02;0.90;;;24.10;54.40;;;;;;5025434;28;20439;-86
2022/08/08 11:09:11;;;;;;;0.88;0.80;;;24.60;54.30;;;;;;5024054;28;20040;-87
2022/08/08 11:11:44;;;;;;;0.82;0.82;;;24.60;54.10;;;;;;5017007;28;20782;-85
2022/08/08 11:14:11;;;;;;;1.00;0.90;;;24.80;53.80;;;;;;5023738;28;20017;-88
2022/08/08 11:16:41;;;;;;;0.77;0.77;;;24.60;52.90;;;;;;5020304;28;20026;-86
2022/08/08 11:19:07;;;;;;;0.80;0.80;;;24.80;53.50;;;;;;5022176;28;20040;-88
2022/08/08 11:21:39;;;;;;;1.20;1.10;;;25.20;53.10;;;;;;5022668;28;20025;-85
2022/08/08 11:24:08;;;;;;;3.33;1.40;;;25.90;52.60;;;;;;5021536;28;20040;-88
2022/08/08 11:26:37;;;;;;;1.58;1.30;;;26.30;51.70;;;;;;5022485;28;20499;-83
2022/08/08 11:29:05;;;;;;;2.95;1.20;;;26.80;47.90;;;;;;5020477;28;20053;-86
2022/08/08 11:31:36;;;;;;;1.45;1.23;;;27.40;45.30;;;;;;5017168;28;20601;-86
2022/08/08 11:34:03;;;;;;;1.48;0.93;;;27.50;44.80;;;;;;5013475;28;20037;-85
2022/08/08 11:36:32;;;;;;;2.88;1.08;;;27.90;48.70;;;;;;5022896;28;20049;-85
2022/08/08 11:38:58;;;;;;;1.17;1.08;;;28.00;44.70;;;;;;5018989;28;20060;-86
2022/08/08 11:41:25;;;;;;;1.23;1.13;;;27.70;45.80;;;;;;5016066;28;20429;-86
2022/08/08 11:43:53;;;;;;;1.40;0.93;;;27.00;45.50;;;;;;5024587;28;20572;-86
2022/08/08 11:46:22;;;;;;;1.10;0.85;;;26.90;46.10;;;;;;5025783;28;20039;-87
2022/08/08 11:48:48;;;;;;;1.55;0.98;;;26.10;49.10;;;;;;5024895;28;20056;-89
2022/08/08 11:51:17;;;;;;;2.28;1.27;;;25.60;50.10;;;;;;5024151;28;20032;-89
2022/08/08 11:53:43;;;;;;;1.23;1.08;;;25.60;50.00;;;;;;5017744;28;20037;-82
2022/08/08 11:56:21;;;;;;;1.83;1.00;;;26.30;47.60;;;;;;5026741;28;20036;-80
2022/08/08 11:58:47;;;;;;;0.75;0.75;;;27.60;45.20;;;;;;5024800;28;20112;-81
2022/08/08 12:01:13;;;;;;;1.05;0.95;;;27.40;47.90;;;;;;5020786;28;20120;-77
2022/08/08 12:03:45;;;;;;;1.15;1.02;;;27.00;47.60;;;;;;5022571;28;20029;-77
2022/08/08 12:06:15;;;;;;;1.38;1.10;;;27.70;46.70;;;;;;5025697;28;20432;-78
2022/08/08 12:08:41;;;;;;;1.33;1.00;;;28.00;46.80;;;;;;5022357;28;20046;-77
2022/08/08 12:11:15;;;;;;;2.15;1.10;;;28.60;46.20;;;;;;5020183;28;20500;-82
2022/08/08 12:13:41;;;;;;;2.40;1.40;;;28.10;47.40;;;;;;5018928;28;20037;-77
2022/08/08 12:16:19;;;;;;;1.17;1.08;;;27.40;48.60;;;;;;5020594;28;20041;-84
2022/08/08 12:18:52;;;;;;;0.90;0.90;;;27.60;47.90;;;;;;5020373;28;20025;-80
2022/08/08 12:21:20;;;;;;;2.17;1.35;;;26.90;48.30;;;;;;5028597;28;20052;-84
2022/08/08 12:23:45;;;;;;;1.52;1.10;;;27.00;48.40;;;;;;5017142;28;20033;-81
2022/08/08 12:26:14;;;;;;;1.08;1.00;;;27.10;47.70;;;;;;5020824;28;20098;-92
2022/08/08 12:28:40;;;;;;;1.33;1.23;;;27.30;47.80;;;;;;5024917;28;20384;-83
2022/08/08 12:31:07;;;;;;;1.50;1.10;;;26.40;48.30;;;;;;5017686;28;20037;-86
2022/08/08 12:33:33;;;;;;;1.55;1.00;;;25.80;49.90;;;;;;5015953;28;20033;-77
2022/08/08 12:36:09;;;;;;;2.28;1.20;;;25.30;49.50;;;;;;5016302;28;20030;-87
2022/08/08 12:38:48;;;;;;;1.33;0.90;;;25.10;50.30;;;;;;5015322;28;20102;-91
2022/08/08 12:41:14;;;;;;;1.40;1.10;;;25.60;50.00;;;;;;5019068;28;20052;-84
2022/08/08 12:43:40;;;;;;;1.27;1.17;;;25.80;49.50;;;;;;5020058;28;20473;-82
2022/08/08 12:46:22;;;;;;;2.40;1.20;;;25.50;50.60;;;;;;5014259;28;20124;-84
2022/08/08 12:48:59;;;;;;;1.92;1.30;;;25.80;51.10;;;;;;5018275;28;20748;-82
2022/08/08 12:51:24;;;;;;;2.17;0.85;;;25.80;50.80;;;;;;5020785;28;20513;-82
2022/08/08 12:53:56;;;;;;;1.40;1.08;;;26.00;51.70;;;;;;5017853;28;20041;-82
2022/08/08 12:56:35;;;;;;;1.30;1.17;;;27.00;49.70;;;;;;5016392;28;20100;-85
2022/08/08 12:59:21;;;;;;;1.45;0.98;;;27.50;46.40;;;;;;5016257;28;20093;-89
2022/08/08 13:01:56;;;;;;;1.30;1.20;;;26.90;48.80;;;;;;5016513;28;20048;-80
2022/08/08 13:04:28;;;;;;;0.93;0.85;;;26.80;45.10;;;;;;5053344;28;20480;-83
2022/08/08 13:07:00;;;;;;;0.82;0.80;;;27.30;47.30;;;;;;5018117;28;20022;-84
2022/08/08 13:10:00;;;;;;;0.80;0.80;;;27.10;48.90;;;;;;5018584;28;20033;-84
2022/08/08 13:12:33;;;;;;;1.55;1.10;;;27.70;49.20;;;;;;5019006;28;20041;-85
2022/08/08 13:15:05;;;;;;;1.20;0.80;;;29.80;46.50;;;;;;5021635;28;20025;-84
2022/08/08 13:17:33;;;;;;;0.98;0.90;;;31.90;42.90;;;;;;5016845;28;20006;-86
2022/08/08 13:19:58;;;;;;;1.15;1.05;;;31.50;42.20;;;;;;5018469;28;20591;-86
2022/08/08 13:22:26;;;;;;;1.42;1.00;;;31.40;42.00;;;;;;5031652;28;20456;-84
2022/08/08 13:24:52;;;;;;;1.58;0.93;;;32.40;38.50;;;;;;5031874;28;20057;-85
2022/08/08 13:27:20;;;;;;;2.03;0.82;;;31.80;41.30;;;;;;5020442;28;20029;-82
2022/08/08 13:29:56;;;;;;;0.82;0.80;;;29.50;43.60;;;;;;5015952;28;20084;-83
2022/08/08 13:32:25;;;;;;;0.88;0.88;;;28.40;44.30;;;;;;5016037;28;20112;-84
2022/08/08 13:34:53;;;;;;;1.02;0.80;;;27.70;46.20;;;;;;5026351;28;20072;-84
2022/08/08 13:37:19;;;;;;;0.80;0.80;;;29.50;45.00;;;;;;5020328;28;20137;-85